createdAt,value
2019-06-26T00:01:41.957Z,11.63
2019-06-26T00:04:30.489Z,11.17
2019-06-26T00:07:19.000Z,11.17
2019-06-26T00:10:07.652Z,11.50
2019-06-26T00:12:37.118Z,11.77
2019-06-26T00:15:25.660Z,11.37
2019-06-26T00:17:55.150Z,11.20
2019-06-26T00:20:43.677Z,12.07
2019-06-26T00:23:32.220Z,11.90
2019-06-26T00:26:20.769Z,12.10
2019-06-26T00:28:50.231Z,12.10
2019-06-26T00:31:39.069Z,11.87
2019-06-26T00:34:27.549Z,11.23
2019-06-26T00:36:57.040Z,12.77
2019-06-26T00:39:45.549Z,12.07
2019-06-26T00:42:34.101Z,11.57
2019-06-26T00:45:22.620Z,11.53
2019-06-26T00:47:52.136Z,13.47
2019-06-26T00:50:40.616Z,13.20
2019-06-26T00:53:29.176Z,12.27
2019-06-26T00:55:58.637Z,12.20
2019-06-26T00:58:28.148Z,12.13
2019-06-26T01:00:57.696Z,12.27
2019-06-26T01:03:46.960Z,11.60
2019-06-26T01:06:54.389Z,12.57
2019-06-26T01:09:42.897Z,12.43
2019-06-26T01:12:31.428Z,13.20
2019-06-26T01:15:20.074Z,12.23
2019-06-26T01:17:49.577Z,12.93
2019-06-26T01:20:19.173Z,13.53
2019-06-26T01:22:48.657Z,13.43
2019-06-26T01:25:37.194Z,12.50
2019-06-26T01:28:06.665Z,12.40
2019-06-26T01:30:55.203Z,12.87
2019-06-26T01:33:25.005Z,12.97
2019-06-26T01:36:13.524Z,12.40
2019-06-26T01:39:02.060Z,12.67
2019-06-26T01:41:31.547Z,13.23
2019-06-26T01:44:20.057Z,12.60
2019-06-26T01:49:54.884Z,13.17
2019-06-26T01:52:24.436Z,13.33
2019-06-26T01:55:12.933Z,13.57
2019-06-26T01:58:01.741Z,12.77
2019-06-26T02:00:31.381Z,13.43
2019-06-26T02:03:19.841Z,14.30
2019-06-26T02:06:08.371Z,12.60
2019-06-26T02:08:56.881Z,13.40
2019-06-26T02:11:26.396Z,13.00
2019-06-26T02:14:30.003Z,13.93
2019-06-26T02:17:05.134Z,13.83
2019-06-26T02:19:53.636Z,13.60
2019-06-26T02:22:42.184Z,13.87
2019-06-26T02:25:30.697Z,13.47
2019-06-26T02:28:19.246Z,13.47
2019-06-26T02:31:07.753Z,14.40
2019-06-26T02:33:37.250Z,13.07
2019-06-26T02:36:30.071Z,14.70
2019-06-26T02:39:18.569Z,15.37
2019-06-26T02:42:07.178Z,14.03
2019-06-26T02:44:55.747Z,13.80
2019-06-26T02:47:25.248Z,13.77
2019-06-26T02:50:06.444Z,14.47
2019-06-26T02:52:47.273Z,13.87
2019-06-26T02:55:16.883Z,13.67
2019-06-26T02:58:05.382Z,13.50
2019-06-26T03:00:53.941Z,14.70
2019-06-26T03:03:23.406Z,14.37
2019-06-26T03:06:11.953Z,13.57
2019-06-26T03:09:00.484Z,14.20
2019-06-26T03:11:30.149Z,15.03
2019-06-26T03:14:21.929Z,14.17
2019-06-26T03:17:10.493Z,14.67
2019-06-26T03:19:59.005Z,14.67
2019-06-26T03:22:28.522Z,14.00
2019-06-26T03:25:17.039Z,15.20
2019-06-26T03:28:05.576Z,15.17
2019-06-26T03:30:54.081Z,14.20
2019-06-26T03:33:23.586Z,14.43
2019-06-26T03:36:12.091Z,13.70
2019-06-26T03:39:00.853Z,14.63
2019-06-26T03:41:30.365Z,15.33
2019-06-26T03:44:20.473Z,14.57
2019-06-26T03:47:01.816Z,14.33
2019-06-26T03:49:43.038Z,14.47
2019-06-26T03:52:12.587Z,13.83
2019-06-26T03:55:01.118Z,14.63
2019-06-26T03:57:30.726Z,14.30
2019-06-26T04:00:00.189Z,14.50
2019-06-26T04:02:29.690Z,15.07
2019-06-26T04:05:00.539Z,15.10
2019-06-26T04:07:30.077Z,13.87
2019-06-26T04:09:59.537Z,16.03
2019-06-26T04:12:29.038Z,14.83
2019-06-26T04:14:58.509Z,15.33
2019-06-26T04:17:28.017Z,15.00
2019-06-26T04:19:57.509Z,15.33
2019-06-26T04:22:26.979Z,15.20
2019-06-26T04:24:56.575Z,14.63
2019-06-26T04:27:26.049Z,15.17
2019-06-26T04:29:55.492Z,15.07
2019-06-26T04:32:24.992Z,15.60
2019-06-26T04:34:54.661Z,14.87
2019-06-26T04:37:24.138Z,15.80
2019-06-26T04:39:53.610Z,14.83
2019-06-26T04:42:23.123Z,15.10
2019-06-26T04:44:54.294Z,15.50
2019-06-26T04:47:23.767Z,15.37
2019-06-26T04:49:53.244Z,14.80
2019-06-26T04:52:22.740Z,15.47
2019-06-26T04:54:52.236Z,15.23
2019-06-26T04:57:21.752Z,15.60
2019-06-26T04:59:51.268Z,14.00
2019-06-26T05:02:20.747Z,13.97
2019-06-26T05:04:50.256Z,14.53
2019-06-26T05:07:19.729Z,14.50
2019-06-26T05:09:49.259Z,13.30
2019-06-26T05:12:18.737Z,13.90
2019-06-26T05:14:48.255Z,13.33
2019-06-26T05:17:17.737Z,13.23
2019-06-26T05:19:47.245Z,13.70
2019-06-26T05:22:16.744Z,13.30
2019-06-26T05:24:46.606Z,12.77
2019-06-26T05:27:16.172Z,12.30
2019-06-26T05:29:45.686Z,12.93
2019-06-26T05:32:15.179Z,12.60
2019-06-26T05:34:44.682Z,14.03
2019-06-26T05:37:14.153Z,12.93
2019-06-26T05:39:43.679Z,12.50
2019-06-26T05:42:13.196Z,11.93
2019-06-26T05:44:42.918Z,11.67
2019-06-26T05:47:12.384Z,11.23
2019-06-26T05:49:41.894Z,11.17
2019-06-26T05:52:11.369Z,11.33
2019-06-26T05:54:40.864Z,11.60
2019-06-26T05:57:10.369Z,12.13
2019-06-26T05:59:39.987Z,10.90
2019-06-26T06:02:09.484Z,10.83
2019-06-26T06:04:38.968Z,10.47
2019-06-26T06:07:08.467Z,10.27
2019-06-26T06:09:37.943Z,9.87
2019-06-26T06:12:07.430Z,10.43
2019-06-26T06:14:36.926Z,10.80
2019-06-26T06:17:06.405Z,10.37
2019-06-26T06:19:35.884Z,10.40
2019-06-26T06:22:05.523Z,10.37
2019-06-26T06:24:35.008Z,10.10
2019-06-26T06:27:04.476Z,10.10
2019-06-26T06:29:33.965Z,9.20
2019-06-26T06:32:03.431Z,10.27
2019-06-26T06:34:32.960Z,10.10
2019-06-26T06:37:02.438Z,10.33
2019-06-26T06:39:31.894Z,9.00
2019-06-26T06:42:01.425Z,10.00
2019-06-26T06:44:30.937Z,10.10
2019-06-26T06:47:04.435Z,10.07
2019-06-26T06:49:31.577Z,9.07
2019-06-26T06:52:01.648Z,9.50
2019-06-26T06:54:31.108Z,10.53
2019-06-26T06:57:00.629Z,10.10
2019-06-26T06:59:30.100Z,9.73
2019-06-26T07:01:59.715Z,10.50
2019-06-26T07:04:29.385Z,9.80
2019-06-26T07:06:59.050Z,10.50
2019-06-26T07:09:28.571Z,9.47
2019-06-26T07:11:58.036Z,10.47
2019-06-26T07:14:27.524Z,9.47
2019-06-26T07:16:56.996Z,10.23
2019-06-26T07:19:26.471Z,9.83
2019-06-26T07:21:55.944Z,10.30
2019-06-26T07:24:25.508Z,10.30
2019-06-26T07:26:54.988Z,10.67
2019-06-26T07:29:25.995Z,10.40
2019-06-26T07:31:55.445Z,10.80
2019-06-26T07:34:24.972Z,9.63
2019-06-26T07:36:54.413Z,10.73
2019-06-26T07:39:23.908Z,10.57
2019-06-26T07:41:53.360Z,11.70
2019-06-26T07:44:22.886Z,10.83
2019-06-26T07:46:52.435Z,11.40
2019-06-26T07:49:21.965Z,11.83
2019-06-26T07:51:51.485Z,11.03
2019-06-26T07:54:21.008Z,12.30
2019-06-26T07:56:50.479Z,10.97
2019-06-26T07:59:19.974Z,11.60
2019-06-26T08:01:49.459Z,11.10
2019-06-26T08:04:18.964Z,12.30
2019-06-26T08:06:48.433Z,11.20
2019-06-26T08:09:17.972Z,11.30
2019-06-26T08:11:47.462Z,11.63
2019-06-26T08:14:17.040Z,11.60
2019-06-26T08:16:46.608Z,11.47
2019-06-26T08:19:16.074Z,11.30
2019-06-26T08:21:46.767Z,11.77
2019-06-26T08:24:16.331Z,12.67
2019-06-26T08:26:45.897Z,11.43
2019-06-26T08:29:15.364Z,12.37
2019-06-26T08:31:44.864Z,11.23
2019-06-26T08:34:14.337Z,12.07
2019-06-26T08:36:43.848Z,10.93
2019-06-26T08:39:13.384Z,11.97
2019-06-26T08:41:42.860Z,11.70
2019-06-26T08:44:12.375Z,10.53
2019-06-26T08:46:41.943Z,11.80
2019-06-26T08:49:25.041Z,11.77
2019-06-26T08:51:42.572Z,11.50
2019-06-26T08:54:12.163Z,11.47
2019-06-26T08:56:41.632Z,10.20
2019-06-26T08:59:11.165Z,10.07
2019-06-26T09:01:40.648Z,8.67
2019-06-26T09:04:10.112Z,8.50
2019-06-26T09:06:39.614Z,9.10
2019-06-26T09:09:09.104Z,7.20
2019-06-26T09:11:38.559Z,7.63
2019-06-26T09:14:08.072Z,8.00
2019-06-26T09:16:37.556Z,7.33
2019-06-26T09:19:07.012Z,7.43
2019-06-26T09:21:36.493Z,7.43
2019-06-26T09:24:05.962Z,7.37
2019-06-26T09:26:35.453Z,8.07
2019-06-26T09:29:04.964Z,7.47
2019-06-26T09:31:34.433Z,8.10
2019-06-26T09:34:03.919Z,7.90
2019-06-26T09:36:33.366Z,8.33
2019-06-26T09:39:02.859Z,9.03
2019-06-26T09:41:32.313Z,8.07
2019-06-26T09:44:01.805Z,8.60
2019-06-26T09:46:31.292Z,8.03
2019-06-26T09:49:00.995Z,9.10
2019-06-26T09:51:30.600Z,8.60
2019-06-26T09:54:00.533Z,7.97
2019-06-26T09:56:30.011Z,8.20
2019-06-26T09:58:59.526Z,8.47
2019-06-26T10:01:48.086Z,7.90
2019-06-26T10:04:17.589Z,7.33
2019-06-26T10:07:06.096Z,7.43
2019-06-26T10:09:54.672Z,7.93
2019-06-26T10:12:24.122Z,8.27
2019-06-26T10:15:12.056Z,8.60
2019-06-26T10:17:59.929Z,8.00
2019-06-26T10:20:48.485Z,7.43
2019-06-26T10:23:17.966Z,7.10
2019-06-26T10:26:06.497Z,7.37
2019-06-26T10:28:47.762Z,7.60
2019-06-26T10:31:18.545Z,7.40
2019-06-26T10:34:09.917Z,6.93
2019-06-26T10:36:57.373Z,7.03
2019-06-26T10:39:26.854Z,6.43
2019-06-26T10:42:15.394Z,6.67
2019-06-26T10:45:04.144Z,6.57
2019-06-26T10:47:44.880Z,6.40
2019-06-26T10:50:14.687Z,6.27
2019-06-26T10:53:03.222Z,6.40
2019-06-26T10:55:51.777Z,6.33
2019-06-26T10:58:21.238Z,6.23
2019-06-26T11:01:15.152Z,6.37
2019-06-26T11:04:03.686Z,5.80
2019-06-26T11:06:36.888Z,6.17
2019-06-26T11:09:05.646Z,6.17
2019-06-26T11:11:54.192Z,5.80
2019-06-26T11:14:23.738Z,5.80
2019-06-26T11:22:22.001Z,5.97
2019-06-26T11:24:51.596Z,5.80
2019-06-26T11:27:21.084Z,5.87
2019-06-26T11:30:09.971Z,5.83
2019-06-26T11:32:58.488Z,5.70
2019-06-26T11:35:47.324Z,5.67
2019-06-26T11:38:16.788Z,5.47
2019-06-26T11:41:05.413Z,5.77
2019-06-26T11:43:53.971Z,5.67
2019-06-26T11:46:37.029Z,6.13
2019-06-26T11:49:06.703Z,6.20
2019-06-26T11:51:55.266Z,5.93
2019-06-26T11:54:58.289Z,5.63
2019-06-26T12:00:42.735Z,5.80
2019-06-26T12:03:13.348Z,6.07
2019-06-26T12:06:17.968Z,6.77
2019-06-26T12:08:34.017Z,5.80
2019-06-26T12:11:03.673Z,6.27
2019-06-26T12:13:52.273Z,6.37
2019-06-26T12:16:40.801Z,6.23
2019-06-26T12:19:10.381Z,5.70
2019-06-26T12:21:58.861Z,6.80
2019-06-26T12:24:47.430Z,6.40
2019-06-26T12:27:35.966Z,5.93
2019-06-26T12:30:05.829Z,5.23
2019-06-26T12:33:03.031Z,6.60
2019-06-26T12:35:44.544Z,5.80
2019-06-26T12:38:14.039Z,5.50
2019-06-26T12:41:02.626Z,5.40
2019-06-26T12:43:32.130Z,6.17
2019-06-26T12:46:01.811Z,5.93
2019-06-26T12:48:50.356Z,6.30
2019-06-26T12:51:19.940Z,6.47
2019-06-26T12:54:08.617Z,6.07
2019-06-26T12:56:38.264Z,6.00
2019-06-26T12:59:26.819Z,6.10
2019-06-26T13:02:15.542Z,6.27
2019-06-26T13:05:04.294Z,5.97
2019-06-26T13:07:33.857Z,6.83
2019-06-26T13:10:07.130Z,6.90
2019-06-26T13:12:34.531Z,6.40
2019-06-26T13:18:58.229Z,6.40
2019-06-26T13:21:27.857Z,6.40
2019-06-26T13:24:16.426Z,6.40
2019-06-26T13:27:04.971Z,6.13
2019-06-26T13:29:34.834Z,6.33
2019-06-26T13:32:23.430Z,6.30
2019-06-26T13:35:12.173Z,5.97
2019-06-26T13:40:30.468Z,6.08
2019-06-26T13:43:18.990Z,6.60
2019-06-26T13:45:59.637Z,6.22
2019-06-26T13:48:29.181Z,5.67
2019-06-26T13:51:21.257Z,6.05
2019-06-26T13:54:07.911Z,5.30
2019-06-26T13:56:56.469Z,5.70
2019-06-26T13:59:44.994Z,5.87
2019-06-26T14:02:14.508Z,6.33
2019-06-26T14:05:03.028Z,6.70
2019-06-26T14:07:51.596Z,5.45
2019-06-26T14:10:21.205Z,5.72
2019-06-26T14:12:50.719Z,6.12
2019-06-26T14:15:20.873Z,5.80
2019-06-26T14:17:50.420Z,6.17
2019-06-26T14:20:20.134Z,5.90
2019-06-26T14:23:11.960Z,6.03
2019-06-26T14:25:41.701Z,5.97
2019-06-26T14:28:30.222Z,7.15
2019-06-26T14:31:18.949Z,5.65
2019-06-26T14:34:07.421Z,6.30
2019-06-26T14:36:36.995Z,6.08
2019-06-26T14:39:25.544Z,5.90
2019-06-26T14:42:14.131Z,6.00
2019-06-26T14:44:43.677Z,5.42
2019-06-26T14:47:49.742Z,6.40
2019-06-26T14:50:30.524Z,5.85
2019-06-26T14:53:11.315Z,6.08
2019-06-26T14:55:40.830Z,5.90
2019-06-26T14:58:10.366Z,6.08
2019-06-26T15:00:39.908Z,5.95
2019-06-26T15:03:28.489Z,6.37
2019-06-26T15:06:17.374Z,6.37
2019-06-26T15:09:07.263Z,6.35
2019-06-26T15:11:36.818Z,6.12
2019-06-26T15:14:06.485Z,5.55
2019-06-26T15:16:36.012Z,5.95
2019-06-26T15:19:24.564Z,5.17
2019-06-26T15:21:58.494Z,5.65
2019-06-26T15:24:45.852Z,5.47
2019-06-26T15:27:15.382Z,5.37
2019-06-26T15:29:44.895Z,5.80
2019-06-26T15:32:33.482Z,6.10
2019-06-26T15:35:21.981Z,5.67
2019-06-26T15:38:10.549Z,6.37
2019-06-26T15:40:40.633Z,6.30
2019-06-26T15:43:29.191Z,6.50
2019-06-26T15:48:52.523Z,5.75
2019-06-26T15:51:41.081Z,6.03
2019-06-26T15:54:29.570Z,5.37
2019-06-26T15:57:18.104Z,5.87
2019-06-26T15:59:47.609Z,6.45
2019-06-26T16:02:17.099Z,6.20
2019-06-26T16:04:46.614Z,5.90
2019-06-26T16:07:16.146Z,6.27
2019-06-26T16:09:45.633Z,5.70
2019-06-26T16:12:15.133Z,5.83
2019-06-26T16:14:44.609Z,5.20
2019-06-26T16:17:20.279Z,5.60
2019-06-26T16:19:49.735Z,6.17
2019-06-26T16:22:31.908Z,5.43
2019-06-26T16:24:50.457Z,5.60
2019-06-26T16:27:20.921Z,5.77
2019-06-26T16:29:50.398Z,5.97
2019-06-26T16:32:19.937Z,7.70
2019-06-26T16:34:49.421Z,7.20
2019-06-26T16:37:18.895Z,5.80
2019-06-26T16:39:48.498Z,6.37
2019-06-26T16:42:17.999Z,5.63
2019-06-26T16:44:47.484Z,5.60
2019-06-26T16:47:17.041Z,5.20
2019-06-26T16:49:46.607Z,6.33
2019-06-26T16:52:16.009Z,5.00
2019-06-26T16:54:45.706Z,4.97
2019-06-26T16:57:15.168Z,6.80
2019-06-26T16:59:44.711Z,6.07
2019-06-26T17:02:14.172Z,5.57
2019-06-26T17:04:43.670Z,5.62
2019-06-26T17:07:13.175Z,5.60
2019-06-26T17:09:44.419Z,5.40
2019-06-26T17:12:13.825Z,5.17
2019-06-26T17:14:43.325Z,5.30
2019-06-26T17:17:12.817Z,6.13
2019-06-26T17:19:42.412Z,5.80
2019-06-26T17:22:11.966Z,5.60
2019-06-26T17:24:41.449Z,5.80
2019-06-26T17:27:10.919Z,5.73
2019-06-26T17:29:40.410Z,5.17
2019-06-26T17:32:09.903Z,5.93
2019-06-26T17:34:39.431Z,6.17
2019-06-26T17:37:08.912Z,6.10
2019-06-26T17:39:38.413Z,5.47
2019-06-26T17:42:07.868Z,5.70
2019-06-26T17:44:37.376Z,5.63
2019-06-26T17:47:06.831Z,6.23
2019-06-26T17:49:36.361Z,5.67
2019-06-26T17:52:05.833Z,5.60
2019-06-26T17:54:35.361Z,6.27
2019-06-26T17:57:04.840Z,5.23
2019-06-26T17:59:34.318Z,5.93
2019-06-26T18:02:03.909Z,6.53
2019-06-26T18:04:33.370Z,5.63
2019-06-26T18:07:02.883Z,5.80
2019-06-26T18:09:32.377Z,6.00
2019-06-26T18:12:01.891Z,6.00
2019-06-26T18:14:31.355Z,5.40
2019-06-26T18:17:03.334Z,6.17
2019-06-26T18:19:32.813Z,6.50
2019-06-26T18:22:02.314Z,5.70
2019-06-26T18:24:31.777Z,6.27
2019-06-26T18:27:01.288Z,6.03
2019-06-26T18:29:30.790Z,6.37
2019-06-26T18:32:00.277Z,6.20
2019-06-26T18:34:29.883Z,6.60
2019-06-26T18:36:59.440Z,5.53
2019-06-26T18:39:28.948Z,6.03
2019-06-26T18:41:58.419Z,6.30
2019-06-26T18:44:27.941Z,5.77
2019-06-26T18:46:57.392Z,6.50
2019-06-26T18:49:27.024Z,6.30
2019-06-26T18:51:56.489Z,6.70
2019-06-26T18:54:25.953Z,6.60
2019-06-26T18:56:55.444Z,6.27
2019-06-26T18:59:24.910Z,6.03
2019-06-26T19:01:54.405Z,6.33
2019-06-26T19:04:23.911Z,6.73
2019-06-26T19:06:53.377Z,7.00
2019-06-26T19:09:22.881Z,6.77
2019-06-26T19:11:52.394Z,7.20
2019-06-26T19:14:21.866Z,6.90
2019-06-26T19:16:51.401Z,7.77
2019-06-26T19:19:20.915Z,7.20
2019-06-26T19:21:50.402Z,7.27
2019-06-26T19:24:19.932Z,6.77
2019-06-26T19:26:49.401Z,7.80
2019-06-26T19:29:18.933Z,7.03
2019-06-26T19:31:48.410Z,6.60
2019-06-26T19:34:17.964Z,7.50
2019-06-26T19:36:50.475Z,6.73
2019-06-26T19:39:20.779Z,7.50
2019-06-26T19:41:49.677Z,7.20
2019-06-26T19:44:19.194Z,7.40
2019-06-26T19:46:48.702Z,7.50
2019-06-26T19:49:18.233Z,7.30
2019-06-26T19:51:47.756Z,6.73
2019-06-26T19:54:26.468Z,7.03
2019-06-26T19:56:48.404Z,7.23
2019-06-26T19:59:17.937Z,8.10
2019-06-26T20:01:51.143Z,8.43
2019-06-26T20:04:19.707Z,7.37
2019-06-26T20:06:49.469Z,6.80
2019-06-26T20:09:18.981Z,7.80
2019-06-26T20:11:48.450Z,7.93
2019-06-26T20:14:17.953Z,8.10
2019-06-26T20:16:47.408Z,8.37
2019-06-26T20:19:16.904Z,7.47
2019-06-26T20:21:46.368Z,7.47
2019-06-26T20:24:15.860Z,8.00
2019-06-26T20:26:46.881Z,8.03
2019-06-26T20:29:16.439Z,8.13
2019-06-26T20:31:45.889Z,7.90
2019-06-26T20:34:15.350Z,8.03
2019-06-26T20:36:44.846Z,8.50
2019-06-26T20:39:14.349Z,9.13
2019-06-26T20:41:43.809Z,9.40
2019-06-26T20:44:13.309Z,9.50
2019-06-26T20:46:42.760Z,9.87
2019-06-26T20:49:12.319Z,9.90
2019-06-26T20:51:41.793Z,10.17
2019-06-26T20:54:11.286Z,10.50
2019-06-26T20:56:40.776Z,9.77
2019-06-26T20:59:10.279Z,10.67
2019-06-26T21:01:40.643Z,10.20
2019-06-26T21:04:10.478Z,10.67
2019-06-26T21:06:39.904Z,10.50
2019-06-26T21:09:10.222Z,9.73
2019-06-26T21:11:39.775Z,9.90
2019-06-26T21:14:09.283Z,9.90
2019-06-26T21:16:38.807Z,9.47
2019-06-26T21:19:08.305Z,8.60
2019-06-26T21:21:37.781Z,9.60
2019-06-26T21:24:07.294Z,8.63
2019-06-26T21:26:36.749Z,9.03
2019-06-26T21:29:06.261Z,9.43
2019-06-26T21:31:35.761Z,9.53
2019-06-26T21:34:05.229Z,10.00
2019-06-26T21:36:34.725Z,9.43
2019-06-26T21:39:05.850Z,9.33
2019-06-26T21:41:35.437Z,8.60
2019-06-26T21:44:04.992Z,9.37
2019-06-26T21:46:34.497Z,9.30
2019-06-26T21:49:03.970Z,8.27
2019-06-26T21:51:33.445Z,9.27
2019-06-26T21:54:02.913Z,9.50
2019-06-26T21:56:32.428Z,9.03
2019-06-26T21:59:01.924Z,9.63
2019-06-26T22:01:31.595Z,10.07
2019-06-26T22:04:01.286Z,10.63
2019-06-26T22:06:31.011Z,11.60
2019-06-26T22:09:00.498Z,10.33
2019-06-26T22:11:29.999Z,10.93
2019-06-26T22:13:59.465Z,11.40
2019-06-26T22:16:28.985Z,10.07
2019-06-26T22:18:58.425Z,9.57
2019-06-26T22:21:27.937Z,10.90
2019-06-26T22:23:57.409Z,10.17
2019-06-26T22:26:26.946Z,10.37
2019-06-26T22:28:56.406Z,11.23
2019-06-26T22:31:25.927Z,10.47
2019-06-26T22:33:55.369Z,10.50
2019-06-26T22:36:24.878Z,10.70
2019-06-26T22:38:54.348Z,10.63
2019-06-26T22:41:23.836Z,10.37
2019-06-26T22:43:53.295Z,11.50
2019-06-26T22:46:22.814Z,11.50
2019-06-26T22:48:52.274Z,11.97
2019-06-26T22:51:21.785Z,10.93
2019-06-26T22:53:51.258Z,12.17
2019-06-26T22:56:20.760Z,13.13
2019-06-26T22:58:50.225Z,11.93
2019-06-26T23:01:19.729Z,12.63
2019-06-26T23:03:49.197Z,12.13
2019-06-26T23:06:18.726Z,12.80
2019-06-26T23:08:48.190Z,12.33
2019-06-26T23:11:17.689Z,11.93
2019-06-26T23:13:47.178Z,12.40
2019-06-26T23:16:16.677Z,13.43
2019-06-26T23:18:46.189Z,13.63
2019-06-26T23:21:15.640Z,12.93
2019-06-26T23:23:45.130Z,12.83
2019-06-26T23:26:23.928Z,13.57
2019-06-26T23:28:45.728Z,13.47
2019-06-26T23:31:16.170Z,15.93
2019-06-26T23:33:45.629Z,13.87
2019-06-26T23:36:15.249Z,13.77
2019-06-26T23:38:44.722Z,13.20
2019-06-26T23:41:17.779Z,14.43
2019-06-26T23:43:45.325Z,13.27
2019-06-26T23:46:14.806Z,14.33
2019-06-26T23:48:45.781Z,14.30
2019-06-26T23:51:15.373Z,13.80
2019-06-26T23:53:44.875Z,14.40
2019-06-26T23:56:14.407Z,13.90
2019-06-26T23:58:43.881Z,13.47
